createdAt,value
2023-05-19T00:02:44.110Z,4.75
2023-05-19T00:07:48.202Z,3.50
2023-05-19T00:12:53.807Z,4.25
2023-05-19T00:17:58.167Z,3.25
2023-05-19T00:23:01.118Z,4.50
2023-05-19T00:28:04.067Z,3.00
2023-05-19T00:33:08.267Z,3.50
2023-05-19T00:38:11.242Z,3.00
2023-05-19T00:43:14.201Z,4.00
2023-05-19T00:48:18.426Z,4.75
2023-05-19T00:53:22.122Z,4.75
2023-05-19T00:58:29.156Z,4.00
2023-05-19T01:03:35.049Z,4.50
2023-05-19T01:08:39.566Z,4.25
2023-05-19T01:13:42.539Z,4.50
2023-05-19T01:18:57.941Z,3.75
2023-05-19T01:24:22.816Z,3.75
2023-05-19T01:29:51.775Z,3.50
2023-05-19T01:34:59.302Z,3.00
2023-05-19T01:40:02.397Z,3.50
2023-05-19T01:45:10.369Z,4.00
2023-05-19T01:50:14.623Z,3.00
2023-05-19T01:55:17.723Z,4.00
2023-05-19T02:00:32.792Z,4.00
2023-05-19T02:05:46.714Z,2.50
2023-05-19T02:10:56.104Z,3.00
2023-05-19T02:16:05.411Z,3.25
2023-05-19T02:21:13.346Z,3.50
2023-05-19T02:26:16.181Z,3.00
2023-05-19T02:31:19.070Z,2.00
2023-05-19T02:36:23.317Z,3.00
2023-05-19T02:41:27.073Z,2.75
2023-05-19T02:46:30.567Z,4.00
2023-05-19T02:51:34.875Z,3.00
2023-05-19T02:56:37.715Z,2.75
2023-05-19T03:01:40.621Z,3.00
2023-05-19T03:06:45.521Z,2.75
2023-05-19T03:11:48.415Z,3.00
2023-05-19T03:16:51.517Z,3.25
2023-05-19T03:21:56.412Z,3.00
2023-05-19T03:26:59.242Z,3.00
2023-05-19T03:32:02.584Z,3.75
2023-05-19T03:37:06.903Z,3.00
2023-05-19T03:42:12.525Z,2.75
2023-05-19T03:47:15.938Z,3.00
2023-05-19T03:52:22.691Z,3.00
2023-05-19T03:57:33.591Z,1.50
2023-05-19T04:02:36.609Z,2.75
2023-05-19T04:07:41.367Z,3.25
2023-05-19T04:12:44.427Z,3.25
2023-05-19T04:17:47.384Z,3.00
2023-05-19T04:22:51.547Z,3.50
2023-05-19T04:27:57.693Z,3.00
2023-05-19T04:33:01.106Z,4.00
2023-05-19T04:38:05.553Z,2.00
2023-05-19T04:43:11.348Z,3.00
2023-05-19T04:48:16.064Z,1.25
2023-05-19T04:53:22.007Z,3.00
2023-05-19T04:58:26.069Z,2.50
2023-05-19T05:03:30.852Z,2.25
2023-05-19T05:08:35.459Z,3.00
2023-05-19T05:13:39.008Z,3.00
2023-05-19T05:18:44.605Z,1.25
2023-05-19T05:23:50.131Z,2.25
2023-05-19T05:28:53.512Z,2.00
2023-05-19T05:33:56.881Z,3.00
2023-05-19T05:39:05.662Z,2.75
2023-05-19T05:44:08.912Z,2.00
2023-05-19T05:49:14.706Z,2.00
2023-05-19T05:54:23.178Z,3.00
2023-05-19T05:59:27.418Z,2.00
2023-05-19T06:04:31.022Z,2.75
2023-05-19T06:09:35.288Z,2.25
2023-05-19T06:14:39.162Z,2.25
2023-05-19T06:20:10.227Z,2.00
2023-05-19T06:25:15.078Z,2.25
2023-05-19T06:30:18.486Z,2.00
2023-05-19T06:35:39.400Z,2.00
2023-05-19T06:40:44.051Z,2.00
2023-05-19T06:45:47.019Z,2.50
2023-05-19T06:50:50.698Z,2.00
2023-05-19T06:55:59.797Z,3.00
2023-05-19T07:01:07.571Z,1.00
2023-05-19T07:06:17.081Z,2.00
2023-05-19T07:11:21.676Z,2.75
2023-05-19T07:16:24.906Z,2.25
2023-05-19T07:21:28.054Z,3.00
2023-05-19T07:26:32.334Z,2.75
2023-05-19T07:31:35.602Z,2.00
2023-05-19T07:36:38.620Z,1.00
2023-05-19T07:41:42.977Z,5.00
2023-05-19T07:46:46.024Z,6.00
2023-05-19T07:51:48.946Z,5.00
2023-05-19T07:56:53.260Z,4.00
2023-05-19T08:01:56.291Z,5.50
2023-05-19T08:06:59.678Z,1.25
2023-05-19T08:12:04.944Z,4.00
2023-05-19T08:17:07.891Z,3.25
2023-05-19T08:22:10.905Z,4.00
2023-05-19T08:27:15.418Z,3.00
2023-05-19T08:32:18.701Z,4.75
2023-05-19T08:37:21.676Z,3.00
2023-05-19T08:42:25.974Z,3.50
2023-05-19T08:47:29.874Z,4.00
2023-05-19T08:52:41.033Z,3.00
2023-05-19T08:57:46.490Z,4.00
2023-05-19T09:03:00.753Z,2.75
2023-05-19T09:08:09.524Z,3.00
2023-05-19T09:13:14.206Z,2.50
2023-05-19T09:18:17.187Z,3.75
2023-05-19T09:23:20.950Z,3.00
2023-05-19T09:28:30.510Z,3.00
2023-05-19T09:33:35.008Z,1.50
2023-05-19T09:38:39.116Z,2.00
2023-05-19T09:43:43.811Z,2.75
2023-05-19T09:48:46.632Z,2.00
2023-05-19T09:53:49.563Z,3.00
2023-05-19T09:58:53.882Z,2.00
2023-05-19T10:03:57.340Z,3.00
2023-05-19T10:09:01.467Z,2.50
2023-05-19T10:14:06.890Z,3.00
2023-05-19T10:19:10.782Z,2.25
2023-05-19T10:24:13.873Z,2.75
2023-05-19T10:29:23.030Z,3.00
2023-05-19T10:34:57.262Z,2.00
2023-05-19T10:40:00.463Z,2.00
2023-05-19T10:45:12.924Z,3.00
2023-05-19T10:50:17.334Z,2.00
2023-05-19T10:55:47.131Z,2.00
2023-05-19T11:01:02.308Z,2.75
2023-05-19T11:06:18.993Z,2.00
2023-05-19T11:11:23.463Z,2.75
2023-05-19T11:16:32.566Z,2.75
2023-05-19T11:21:43.086Z,2.00
2023-05-19T11:26:47.576Z,2.00
2023-05-19T14:19:55.810Z,66.20
2023-05-19T14:25:00.459Z,57.00
2023-05-19T14:30:03.483Z,58.20
2023-05-19T14:35:08.761Z,58.00
2023-05-19T14:40:12.692Z,60.00
2023-05-19T14:45:16.433Z,51.60
2023-05-19T14:50:20.783Z,54.60
2023-05-19T14:55:23.588Z,52.80
2023-05-19T15:00:26.949Z,47.20
2023-05-19T15:05:31.128Z,38.60
2023-05-19T15:10:34.144Z,39.20
2023-05-19T15:15:37.166Z,39.00
2023-05-19T15:20:41.291Z,35.80
2023-05-19T15:25:45.504Z,34.00
2023-05-19T15:30:48.481Z,32.00
2023-05-19T15:35:52.814Z,32.00
2023-05-19T15:40:55.676Z,30.20
2023-05-19T15:45:58.602Z,28.00
2023-05-19T15:51:03.114Z,27.00
2023-05-19T15:56:06.497Z,26.40
2023-05-19T16:01:10.117Z,27.00
2023-05-19T16:06:14.586Z,26.00
2023-05-19T16:11:18.244Z,24.00
2023-05-19T16:16:21.221Z,23.60
2023-05-19T16:21:25.532Z,22.40
2023-05-19T16:26:28.949Z,20.80
2023-05-19T16:31:31.862Z,16.60
2023-05-19T16:36:36.499Z,16.00
2023-05-19T16:41:41.643Z,13.00
2023-05-19T16:46:44.542Z,13.00
2023-05-19T16:51:48.968Z,14.00
2023-05-19T16:56:53.495Z,12.60
2023-05-19T17:01:56.973Z,12.80
2023-05-19T17:07:01.268Z,11.00
2023-05-19T17:12:04.616Z,10.40
2023-05-19T17:17:07.699Z,10.40
2023-05-19T17:22:12.004Z,10.00
2023-05-19T17:27:15.055Z,9.80
2023-05-19T17:32:18.105Z,9.40
2023-05-19T17:37:25.597Z,9.00
2023-05-19T17:42:29.086Z,9.80
2023-05-19T17:47:31.976Z,7.80
2023-05-19T17:52:36.849Z,8.75
2023-05-19T17:57:41.446Z,7.80
2023-05-19T18:02:45.252Z,7.00
2023-05-19T18:07:50.773Z,7.25
2023-05-19T18:12:53.818Z,5.50
2023-05-19T18:17:56.681Z,7.00
2023-05-19T18:23:01.049Z,6.75
2023-05-19T18:28:03.868Z,6.50
2023-05-19T18:33:07.405Z,5.75
2023-05-19T18:38:11.753Z,5.25
2023-05-19T18:43:14.581Z,6.25
2023-05-19T18:48:17.587Z,6.75
2023-05-19T18:53:22.077Z,5.25
2023-05-19T18:58:25.038Z,6.00
2023-05-19T19:03:28.601Z,4.75
2023-05-19T19:08:32.933Z,5.00
2023-05-19T19:13:35.997Z,5.00
2023-05-19T19:18:39.146Z,5.00
2023-05-19T19:23:43.736Z,4.50
2023-05-19T19:28:46.745Z,4.75
2023-05-19T19:33:49.577Z,4.00
2023-05-19T19:38:53.758Z,3.75
2023-05-19T19:43:56.880Z,4.00
2023-05-19T19:49:00.408Z,4.00
2023-05-19T19:54:04.687Z,4.00
2023-05-19T19:59:07.635Z,5.50
2023-05-19T20:05:15.406Z,4.50
2023-05-19T20:10:20.009Z,4.00
2023-05-19T20:15:22.849Z,4.75
2023-05-19T20:20:25.622Z,5.00
2023-05-19T20:25:29.825Z,4.00
2023-05-19T20:30:33.277Z,5.25
2023-05-19T20:35:36.435Z,4.00
2023-05-19T20:40:40.743Z,3.50
2023-05-19T20:45:44.252Z,4.00
2023-05-19T20:50:47.123Z,4.00
2023-05-19T20:55:51.274Z,4.00
2023-05-19T21:00:57.533Z,4.00
2023-05-19T21:06:00.965Z,3.00
2023-05-19T21:11:05.153Z,3.25
2023-05-19T21:16:08.181Z,2.75
2023-05-19T21:21:10.986Z,2.50
2023-05-19T21:26:15.441Z,3.75
2023-05-19T21:31:18.317Z,4.00
2023-05-19T21:36:21.265Z,3.00
2023-05-19T21:41:25.968Z,3.00
2023-05-19T21:46:29.413Z,3.00
2023-05-19T21:51:34.973Z,3.25
2023-05-19T21:56:39.219Z,3.00
2023-05-19T22:01:42.275Z,4.00
2023-05-19T22:06:45.478Z,3.50
2023-05-19T22:11:49.713Z,3.00
2023-05-19T22:16:52.536Z,3.25
2023-05-19T22:22:01.869Z,3.25
2023-05-19T22:27:10.316Z,3.50
2023-05-19T22:32:14.074Z,3.00
2023-05-19T22:37:16.839Z,3.00
2023-05-19T22:42:21.163Z,3.00
2023-05-19T22:47:23.984Z,2.00
2023-05-19T22:52:26.838Z,3.00
2023-05-19T22:57:31.177Z,3.50
2023-05-19T23:02:33.946Z,3.00
2023-05-19T23:07:36.796Z,3.50
2023-05-19T23:12:41.006Z,2.50
2023-05-19T23:17:43.832Z,2.75
2023-05-19T23:22:46.741Z,2.00
2023-05-19T23:27:50.882Z,2.75
2023-05-19T23:32:53.923Z,2.00
2023-05-19T23:37:56.732Z,2.50
2023-05-19T23:43:01.101Z,2.00
2023-05-19T23:48:04.066Z,3.00
2023-05-19T23:53:06.913Z,3.00
2023-05-19T23:58:11.236Z,3.00
